map of PUQ home
PUQ - Airport
Location
City:  Punta Arenas, Magallanes y de la Antártica Chilena, Chile
Name:Presidente Carlos Ibáñez del Campo International Airport
ICAO:SCCI
IATA:PUQ

Details
Type:Airport (Aerodrome, Airfield)
Use:Public/Civil, International (customs port of entry)
Latitude:53°00'13"S (-53.003610)
Longitude:70°51'13"W (-70.853610)
Elevation:139 ft (42 m)
Variation:13.23°E (WMM2015 magnetic declination)
-0.07° annual change
Runways:3
Longest:9154 × 197 ft (2790 × 60 m), paved

Time
Time Zone:UTC-4 (DST-3)
Local Time:

Weather
METAR:SCCI 201800Z 29025KT 9999 SCT030 BKN150 08/01 Q0983 NOSIG
TAF:SCCI 201641Z 2018/2118 30025G42KT LVA1067 201730 GG TJSJYMYX LVA1068 201730 GG MWCRYMYX 201730 SPIMYZYX FTPR85 SPIM 201700 SPHI 201700Z 2018/2118 17008KT 9999 BKN020 TX23/2120Z TN15/2111Z
TEMPO 2019/2022 17012KT SCT025
FM210400 17005KT 9999 BKN015 BKN150
TEMPO 2110/2114 OVC012

Related Locations
Nearby:
Farthest:UIUI: 12401 mi / 19957 km
Ust'-Barguzin, BU, RU

Find:

   beyond  
but within

Other Information
Maps:
NOTAMs:
Links:
Sources:

  
flag of Chile
flag of Magallanes y de la Antártica Chilena
  

Sectional Chart

Flight Planning
at skyvector.com

Satellite Image

Google Maps Satellite view

 

Copyright © 2004-2017 Karl L. Swartz. All rights reserved.
The Great Circle Mapper name and logo are trademarks of the Great Circle Mapper.
All other trademarks mentioned herein belong to their respective owners.
Please see credits for attibutions and further copyright information.

  Follow gcmap on Facebook Follow gcmap on Twitter Follow gcmap on Google+ GCmap on LinkedIn

hCard Microformat

Geo Microformat